createdAt,value
2023-04-11T00:00:14.767Z,97387.50
2023-04-11T00:02:41.457Z,97369.19
2023-04-11T00:05:08.679Z,97353.16
2023-04-11T00:07:35.368Z,97365.34
2023-04-11T00:10:02.389Z,97378.34
2023-04-11T00:12:28.964Z,97368.59
2023-04-11T00:14:55.530Z,97383.59
2023-04-11T00:17:23.568Z,97380.50
2023-04-11T00:19:53.201Z,97387.13
2023-04-11T00:22:19.745Z,97405.16
2023-04-11T00:24:46.267Z,97412.19
2023-04-11T00:27:12.756Z,97413.63
2023-04-11T00:29:39.244Z,97417.84
2023-04-11T00:32:06.006Z,97426.69
2023-04-11T00:34:34.135Z,97436.03
2023-04-11T00:37:01.555Z,97436.22
2023-04-11T00:39:30.326Z,97448.16
2023-04-11T00:42:04.588Z,97458.94
2023-04-11T00:44:31.054Z,97470.00
2023-04-11T00:46:57.611Z,97465.47
2023-04-11T00:49:24.088Z,97468.03
2023-04-11T00:51:50.653Z,97470.56
2023-04-11T00:54:18.271Z,97467.34
2023-04-11T00:56:44.735Z,97473.75
2023-04-11T00:59:11.340Z,97460.75
2023-04-11T01:01:38.321Z,97460.22
2023-04-11T01:04:05.516Z,97449.78
2023-04-11T01:06:32.389Z,97449.59
2023-04-11T01:08:58.867Z,97450.22
2023-04-11T01:11:25.390Z,97441.06
2023-04-11T01:13:51.862Z,97438.72
2023-04-11T01:16:21.726Z,97441.75
2023-04-11T01:18:48.957Z,97434.78
2023-04-11T01:21:16.733Z,97436.13
2023-04-11T01:23:43.184Z,97429.47
2023-04-11T01:26:09.689Z,97428.31
2023-04-11T01:28:36.204Z,97431.69
2023-04-11T01:31:02.755Z,97440.22
2023-04-11T01:33:29.395Z,97439.88
2023-04-11T01:35:55.928Z,97430.06
2023-04-11T01:38:22.403Z,97412.78
2023-04-11T01:40:48.861Z,97407.63
2023-04-11T01:43:15.328Z,97395.63
2023-04-11T01:45:41.784Z,97389.63
2023-04-11T01:48:08.604Z,97394.72
2023-04-11T01:50:35.824Z,97384.19
2023-04-11T01:53:02.302Z,97378.31
2023-04-11T01:55:28.762Z,97376.34
2023-04-11T01:57:55.396Z,97378.03
2023-04-11T02:00:22.060Z,97389.91
2023-04-11T02:02:48.666Z,97375.38
2023-04-11T02:05:15.467Z,97367.78
2023-04-11T02:07:42.150Z,97361.81
2023-04-11T02:10:09.574Z,97373.69
2023-04-11T02:12:36.034Z,97368.34
2023-04-11T02:15:02.505Z,97370.44
2023-04-11T02:17:31.118Z,97360.31
2023-04-11T02:19:57.907Z,97362.97
2023-04-11T02:22:25.031Z,97357.38
2023-04-11T02:24:51.551Z,97360.41
2023-04-11T02:27:18.033Z,97353.28
2023-04-11T02:29:44.488Z,97347.53
2023-04-11T02:32:11.074Z,97345.31
2023-04-11T02:34:37.810Z,97329.56
2023-04-11T02:37:04.281Z,97318.25
2023-04-11T02:39:31.471Z,97333.00
2023-04-11T02:41:57.970Z,97327.34
2023-04-11T02:44:26.257Z,97339.38
2023-04-11T02:46:52.918Z,97340.88
2023-04-11T02:49:20.017Z,97348.66
2023-04-11T02:51:47.298Z,97351.50
2023-04-11T02:54:13.758Z,97363.06
2023-04-11T02:56:40.268Z,97346.31
2023-04-11T02:59:07.004Z,97351.91
2023-04-11T03:01:34.058Z,97358.22
2023-04-11T03:04:01.196Z,97364.50
2023-04-11T03:06:28.166Z,97372.59
2023-04-11T03:08:54.843Z,97364.66
2023-04-11T03:11:21.566Z,97367.78
2023-04-11T03:13:50.050Z,97369.19
2023-04-11T03:16:16.585Z,97369.03
2023-04-11T03:18:43.132Z,97376.16
2023-04-11T03:21:10.874Z,97361.25
2023-04-11T03:23:38.320Z,97358.84
2023-04-11T03:26:05.902Z,97362.78
2023-04-11T03:28:32.436Z,97360.28
2023-04-11T03:30:58.933Z,97360.28
2023-04-11T03:33:25.436Z,97366.50
2023-04-11T03:35:51.974Z,97373.13
2023-04-11T03:38:18.470Z,97371.06
2023-04-11T03:40:44.950Z,97370.97
2023-04-11T03:43:11.720Z,97362.69
2023-04-11T03:45:38.193Z,97369.47
2023-04-11T03:48:05.007Z,97370.50
2023-04-11T03:50:31.548Z,97387.19
2023-04-11T03:52:58.230Z,97401.91
2023-04-11T03:55:26.010Z,97410.94
2023-04-11T03:57:52.499Z,97405.09
2023-04-11T04:00:19.884Z,97418.06
2023-04-11T04:02:46.719Z,97412.06
2023-04-11T04:05:13.660Z,97404.25
2023-04-11T04:07:40.242Z,97399.44
2023-04-11T04:10:07.066Z,97395.41
2023-04-11T04:12:33.817Z,97388.41
2023-04-11T04:15:00.298Z,97397.53
2023-04-11T04:17:27.083Z,97382.25
2023-04-11T04:19:53.593Z,97386.06
2023-04-11T04:22:22.238Z,97389.09
2023-04-11T04:24:48.830Z,97393.31
2023-04-11T04:27:18.145Z,97394.44
2023-04-11T04:29:50.843Z,97391.72
2023-04-11T04:32:24.990Z,97398.50
2023-04-11T04:34:55.331Z,97398.38
2023-04-11T04:37:25.012Z,97404.94
2023-04-11T04:39:55.413Z,97406.31
2023-04-11T04:42:23.386Z,97416.28
2023-04-11T04:44:50.739Z,97409.63
2023-04-11T04:47:17.394Z,97414.06
2023-04-11T04:49:44.261Z,97421.00
2023-04-11T04:52:11.165Z,97414.69
2023-04-11T04:54:37.664Z,97423.03
2023-04-11T04:57:04.175Z,97424.06
2023-04-11T04:59:31.538Z,97429.81
2023-04-11T05:01:58.216Z,97432.84
2023-04-11T05:04:25.097Z,97433.47
2023-04-11T05:06:51.706Z,97436.44
2023-04-11T05:09:18.232Z,97425.59
2023-04-11T05:11:44.729Z,97430.34
2023-04-11T05:14:11.289Z,97435.59
2023-04-11T05:16:40.765Z,97436.06
2023-04-11T05:19:07.290Z,97441.91
2023-04-11T05:21:33.761Z,97440.56
2023-04-11T05:24:00.501Z,97445.59
2023-04-11T05:26:27.616Z,97449.25
2023-04-11T05:28:54.096Z,97448.00
2023-04-11T05:31:20.863Z,97444.75
2023-04-11T05:33:47.418Z,97432.31
2023-04-11T05:36:14.359Z,97437.94
2023-04-11T05:38:41.522Z,97418.59
2023-04-11T05:41:08.693Z,97427.53
2023-04-11T05:43:35.225Z,97423.13
2023-04-11T05:46:01.952Z,97435.00
2023-04-11T05:48:28.504Z,97432.13
2023-04-11T05:50:54.964Z,97436.88
2023-04-11T05:53:21.645Z,97435.16
2023-04-11T05:55:48.119Z,97445.38
2023-04-11T05:58:14.629Z,97442.41
2023-04-11T06:00:41.155Z,97444.00
2023-04-11T06:03:10.551Z,97443.75
2023-04-11T06:05:37.139Z,97443.81
2023-04-11T06:08:04.977Z,97440.38
2023-04-11T06:10:31.609Z,97430.44
2023-04-11T06:12:58.164Z,97453.41
2023-04-11T06:15:25.556Z,97442.56
2023-04-11T06:17:52.147Z,97447.84
2023-04-11T06:20:18.942Z,97449.66
2023-04-11T06:22:46.911Z,97478.25
2023-04-11T06:25:14.302Z,97498.94
2023-04-11T06:27:40.811Z,97492.56
2023-04-11T06:30:07.957Z,97482.81
2023-04-11T06:32:34.502Z,97486.28
2023-04-11T06:35:01.312Z,97482.84
2023-04-11T06:37:27.835Z,97486.53
2023-04-11T06:39:54.305Z,97499.59
2023-04-11T06:42:21.169Z,97497.75
2023-04-11T06:44:48.653Z,97502.00
2023-04-11T06:47:15.298Z,97497.44
2023-04-11T06:49:42.120Z,97501.34
2023-04-11T06:52:08.629Z,97507.88
2023-04-11T06:54:35.147Z,97516.13
2023-04-11T06:57:02.374Z,97505.59
2023-04-11T06:59:28.872Z,97506.06
2023-04-11T07:01:55.633Z,97518.31
2023-04-11T07:04:22.415Z,97518.31
2023-04-11T07:06:48.964Z,97516.59
2023-04-11T07:09:15.554Z,97515.91
2023-04-11T07:11:42.046Z,97509.69
2023-04-11T07:14:08.527Z,97510.16
2023-04-11T07:16:35.012Z,97529.75
2023-04-11T07:19:03.067Z,97525.06
2023-04-11T07:21:30.315Z,97544.31
2023-04-11T07:23:57.014Z,97546.38
2023-04-11T07:26:23.901Z,97550.00
2023-04-11T07:28:51.180Z,97557.13
2023-04-11T07:31:19.710Z,97554.00
2023-04-11T07:33:46.224Z,97562.13
2023-04-11T07:36:12.846Z,97560.56
2023-04-11T07:38:39.408Z,97558.56
2023-04-11T07:41:06.233Z,97546.03
2023-04-11T07:43:32.969Z,97556.34
2023-04-11T07:45:59.769Z,97566.63
2023-04-11T07:48:26.965Z,97566.06
2023-04-11T07:50:54.019Z,97551.72
2023-04-11T07:53:21.733Z,97561.34
2023-04-11T07:55:48.329Z,97560.47
2023-04-11T07:58:15.243Z,97558.22
2023-04-11T08:00:41.830Z,97567.09
2023-04-11T08:03:09.385Z,97564.94
2023-04-11T08:05:36.430Z,97562.44
2023-04-11T08:08:03.709Z,97571.66
2023-04-11T08:10:30.270Z,97574.31
2023-04-11T08:12:56.834Z,97583.97
2023-04-11T08:15:23.296Z,97573.19
2023-04-11T08:17:49.883Z,97575.03
2023-04-11T08:20:16.848Z,97570.78
2023-04-11T08:22:46.807Z,97577.34
2023-04-11T08:25:14.390Z,97568.56
2023-04-11T08:27:41.003Z,97571.97
2023-04-11T08:30:10.888Z,97582.34
2023-04-11T08:32:37.915Z,97576.16
2023-04-11T08:35:04.922Z,97588.81
2023-04-11T08:37:31.500Z,97579.94
2023-04-11T08:39:58.023Z,97586.19
2023-04-11T08:42:25.304Z,97584.94
2023-04-11T08:44:58.522Z,97598.34
2023-04-11T08:47:25.502Z,97597.84
2023-04-11T08:49:52.113Z,97595.97
2023-04-11T08:52:21.906Z,97601.03
2023-04-11T08:54:48.868Z,97593.75
2023-04-11T08:57:25.838Z,97593.06
2023-04-11T08:59:53.565Z,97585.81
2023-04-11T09:02:20.393Z,97593.03
2023-04-11T09:04:47.672Z,97588.31
2023-04-11T09:07:16.316Z,97602.19
2023-04-11T09:09:43.433Z,97591.75
2023-04-11T09:12:10.006Z,97587.94
2023-04-11T09:14:36.584Z,97591.34
2023-04-11T09:17:13.262Z,97610.47
2023-04-11T09:19:41.980Z,97606.19
2023-04-11T09:22:08.680Z,97599.75
2023-04-11T09:24:35.825Z,97603.00
2023-04-11T09:27:12.876Z,97589.78
2023-04-11T09:29:40.403Z,97599.75
2023-04-11T09:32:06.924Z,97597.81
2023-04-11T09:34:34.604Z,97591.88
2023-04-11T09:37:02.129Z,97609.75
2023-04-11T09:39:29.489Z,97619.66
2023-04-11T09:41:56.906Z,97603.91
2023-04-11T09:44:38.929Z,97611.47
2023-04-11T09:47:05.647Z,97597.66
2023-04-11T09:49:34.070Z,97614.31
2023-04-11T09:52:00.903Z,97601.84
2023-04-11T09:54:28.325Z,97606.34
2023-04-11T09:56:54.815Z,97606.06
2023-04-11T09:59:21.712Z,97592.28
2023-04-11T10:01:49.883Z,97609.34
2023-04-11T10:04:16.409Z,97609.28
2023-04-11T10:07:04.794Z,97613.97
2023-04-11T10:09:32.363Z,97593.50
2023-04-11T10:11:58.851Z,97601.00
2023-04-11T10:14:44.007Z,97595.81
2023-04-11T10:17:14.899Z,97596.09
2023-04-11T10:19:44.006Z,97594.47
2023-04-11T10:22:11.272Z,97608.78
2023-04-11T10:24:38.557Z,97611.81
2023-04-11T10:27:05.256Z,97612.31
2023-04-11T10:29:35.043Z,97616.13
2023-04-11T10:32:21.388Z,97621.06
2023-04-11T10:34:50.966Z,97644.06
2023-04-11T10:37:17.876Z,97638.53
2023-04-11T10:39:50.808Z,97619.56
2023-04-11T10:42:39.402Z,97619.25
2023-04-11T10:45:22.169Z,97628.00
2023-04-11T10:47:51.306Z,97629.31
2023-04-11T10:50:23.565Z,97637.88
2023-04-11T10:52:50.126Z,97647.75
2023-04-11T10:55:17.567Z,97628.94
2023-04-11T10:58:06.955Z,97634.47
2023-04-11T11:00:49.608Z,97639.06
2023-04-11T11:03:20.991Z,97646.72
2023-04-11T11:05:48.072Z,97635.72
2023-04-11T11:08:14.522Z,97649.22
2023-04-11T11:10:46.287Z,97666.25
2023-04-11T11:13:14.904Z,97671.34
2023-04-11T11:15:49.244Z,97664.66
2023-04-11T11:18:16.200Z,97650.28
2023-04-11T11:20:42.681Z,97658.75
2023-04-11T11:23:09.722Z,97659.00
2023-04-11T11:25:36.264Z,97661.03
2023-04-11T11:28:04.823Z,97656.31
2023-04-11T11:30:31.546Z,97667.16
2023-04-11T11:32:58.113Z,97656.78
2023-04-11T11:35:24.690Z,97662.44
2023-04-11T11:37:54.482Z,97668.78
2023-04-11T11:40:22.097Z,97659.66
2023-04-11T11:42:49.736Z,97667.56
2023-04-11T11:45:20.017Z,97676.94
2023-04-11T11:47:46.678Z,97690.94
2023-04-11T11:50:29.364Z,97681.59
2023-04-11T11:52:58.465Z,97684.75
2023-04-11T11:55:24.766Z,97682.25
2023-04-11T11:57:51.333Z,97676.28
2023-04-11T12:00:24.329Z,97672.25
2023-04-11T12:02:55.168Z,97681.09
2023-04-11T12:05:24.005Z,97675.47
2023-04-11T12:07:53.568Z,97671.78
2023-04-11T12:10:20.075Z,97673.94
2023-04-11T12:12:53.640Z,97667.78
2023-04-11T12:15:22.107Z,97661.78
2023-04-11T12:17:49.896Z,97657.38
2023-04-11T12:20:16.507Z,97650.97
2023-04-11T12:22:43.050Z,97664.63
2023-04-11T12:25:13.971Z,97646.03
2023-04-11T12:27:42.055Z,97624.47
2023-04-11T12:30:09.392Z,97648.34
2023-04-11T12:32:36.214Z,97663.41
2023-04-11T12:35:03.469Z,97637.44
2023-04-11T12:37:30.355Z,97661.38
2023-04-11T12:39:56.820Z,97637.00
2023-04-11T12:42:26.684Z,97647.41
2023-04-11T12:44:53.758Z,97662.03
2023-04-11T12:47:20.359Z,97633.75
2023-04-11T12:49:46.875Z,97658.25
2023-04-11T12:52:13.342Z,97635.03
2023-04-11T12:54:39.830Z,97660.63
2023-04-11T12:57:07.667Z,97666.91
2023-04-11T12:59:34.229Z,97680.44
2023-04-11T13:02:01.551Z,97668.28
2023-04-11T13:04:28.411Z,97662.81
2023-04-11T13:06:55.074Z,97668.06
2023-04-11T13:09:21.891Z,97683.78
2023-04-11T13:11:48.422Z,97701.59
2023-04-11T13:14:14.891Z,97711.25
2023-04-11T13:16:41.512Z,97711.44
2023-04-11T13:19:08.092Z,97726.19
2023-04-11T13:21:34.585Z,97713.88
2023-04-11T13:24:01.118Z,97702.69
2023-04-11T13:26:28.477Z,97699.75
2023-04-11T13:28:55.435Z,97693.50
2023-04-11T13:31:26.561Z,97692.09
2023-04-11T13:33:53.268Z,97694.88
2023-04-11T13:36:20.118Z,97698.22
2023-04-11T13:38:47.085Z,97691.38
2023-04-11T13:41:14.793Z,97699.28
2023-04-11T13:43:41.587Z,97694.50
2023-04-11T13:46:08.150Z,97687.59
2023-04-11T13:48:35.738Z,97681.47
2023-04-11T13:51:02.218Z,97693.13
2023-04-11T13:53:28.741Z,97696.47
2023-04-11T13:55:55.305Z,97697.91
2023-04-11T13:58:21.861Z,97694.81
2023-04-11T14:00:50.300Z,97694.09
2023-04-11T14:03:16.949Z,97693.28
2023-04-11T14:05:43.580Z,97703.75
2023-04-11T14:08:10.136Z,97700.28
2023-04-11T14:10:36.634Z,97713.06
2023-04-11T14:13:05.495Z,97685.16
2023-04-11T14:15:32.544Z,97695.50
2023-04-11T14:17:59.090Z,97700.16
2023-04-11T14:20:25.873Z,97696.19
2023-04-11T14:22:52.372Z,97688.16
2023-04-11T14:25:19.215Z,97687.41
2023-04-11T14:27:45.746Z,97673.53
2023-04-11T14:30:12.986Z,97679.66
2023-04-11T14:32:40.128Z,97701.72
2023-04-11T14:35:08.788Z,97688.63
2023-04-11T14:37:35.493Z,97702.44
2023-04-11T14:40:03.607Z,97707.50
2023-04-11T14:42:30.111Z,97716.56
2023-04-11T14:44:56.768Z,97683.84
2023-04-11T14:47:23.274Z,97690.22
2023-04-11T14:49:49.765Z,97706.94
2023-04-11T14:52:16.299Z,97698.50
2023-04-11T14:54:42.792Z,97697.59
2023-04-11T14:57:09.638Z,97699.00
2023-04-11T14:59:36.169Z,97689.53
2023-04-11T15:02:03.088Z,97697.66
2023-04-11T15:04:29.755Z,97698.56
2023-04-11T15:06:56.625Z,97701.06
2023-04-11T15:09:23.127Z,97689.16
2023-04-11T15:11:49.885Z,97691.94
2023-04-11T15:14:16.366Z,97696.41
2023-04-11T15:16:42.869Z,97706.44
2023-04-11T15:19:09.604Z,97701.34
2023-04-11T15:21:36.174Z,97696.09
2023-04-11T15:24:07.175Z,97701.53
2023-04-11T15:26:34.145Z,97702.19
2023-04-11T15:29:00.800Z,97711.47
2023-04-11T15:31:27.458Z,97722.38
2023-04-11T15:33:56.512Z,97711.44
2023-04-11T15:36:23.272Z,97718.28
2023-04-11T15:38:49.840Z,97716.22
2023-04-11T15:41:19.580Z,97711.84
2023-04-11T15:43:46.192Z,97711.09
2023-04-11T15:46:12.741Z,97714.31
2023-04-11T15:48:39.223Z,97717.81
2023-04-11T15:51:09.904Z,97706.81
2023-04-11T15:53:36.415Z,97723.22
2023-04-11T15:56:09.120Z,97715.72
2023-04-11T15:58:35.665Z,97721.56
2023-04-11T16:01:02.244Z,97730.00
2023-04-11T16:03:32.178Z,97717.66
2023-04-11T16:05:59.266Z,97722.72
2023-04-11T16:08:27.072Z,97717.41
2023-04-11T16:10:54.022Z,97719.81
2023-04-11T16:13:20.678Z,97730.81
2023-04-11T16:15:47.161Z,97715.78
2023-04-11T16:18:13.649Z,97721.34
2023-04-11T16:20:40.403Z,97711.59
2023-04-11T16:23:06.923Z,97724.22
2023-04-11T16:25:33.383Z,97717.00
2023-04-11T16:28:00.292Z,97717.06
2023-04-11T16:30:27.928Z,97714.56
2023-04-11T16:32:54.594Z,97705.91
2023-04-11T16:35:21.108Z,97713.06
2023-04-11T16:37:47.704Z,97711.84
2023-04-11T16:40:14.393Z,97717.41
2023-04-11T16:42:41.052Z,97719.31
2023-04-11T16:45:08.288Z,97720.03
2023-04-11T16:47:34.813Z,97724.63
2023-04-11T16:50:01.325Z,97718.53
2023-04-11T16:52:28.218Z,97717.47
2023-04-11T16:54:54.768Z,97712.09
2023-04-11T16:57:21.263Z,97709.91
2023-04-11T16:59:47.733Z,97717.25
2023-04-11T17:02:14.303Z,97701.59
2023-04-11T17:04:41.393Z,97722.44
2023-04-11T17:07:08.003Z,97713.81
2023-04-11T17:09:34.485Z,97711.63
2023-04-11T17:12:02.174Z,97705.56
2023-04-11T17:14:28.909Z,97714.28
2023-04-11T17:16:55.483Z,97716.94
2023-04-11T17:19:23.737Z,97711.59
2023-04-11T17:21:50.932Z,97715.16
2023-04-11T17:24:17.394Z,97717.66
2023-04-11T17:26:43.928Z,97725.13
2023-04-11T17:29:11.008Z,97734.16
2023-04-11T17:31:37.756Z,97720.66
2023-04-11T17:34:04.470Z,97736.38
2023-04-11T17:36:30.948Z,97743.25
2023-04-11T17:38:57.493Z,97725.66
2023-04-11T17:41:24.024Z,97742.06
2023-04-11T17:43:50.654Z,97759.28
2023-04-11T17:46:17.158Z,97744.00
2023-04-11T17:48:43.708Z,97752.53
2023-04-11T17:51:10.226Z,97766.88
2023-04-11T17:53:36.979Z,97766.66
2023-04-11T17:56:04.491Z,97769.47
2023-04-11T17:58:31.734Z,97769.16
2023-04-11T18:00:58.287Z,97783.31
2023-04-11T18:03:25.306Z,97778.25
2023-04-11T18:05:52.396Z,97778.47
2023-04-11T18:08:18.922Z,97768.91
2023-04-11T18:10:45.901Z,97773.88
2023-04-11T18:13:12.450Z,97771.75
2023-04-11T18:15:38.980Z,97780.75
2023-04-11T18:18:09.503Z,97785.63
2023-04-11T18:20:38.514Z,97782.47
2023-04-11T18:23:04.993Z,97796.69
2023-04-11T18:25:31.545Z,97805.88
2023-04-11T18:27:58.034Z,97804.22
2023-04-11T18:30:24.615Z,97796.03
2023-04-11T18:32:53.674Z,97794.69
2023-04-11T18:35:20.542Z,97786.13
2023-04-11T18:37:47.132Z,97792.06
2023-04-11T18:40:13.822Z,97795.94
2023-04-11T18:42:41.190Z,97782.59
2023-04-11T18:45:08.149Z,97787.38
2023-04-11T18:47:35.001Z,97806.44
2023-04-11T18:50:01.719Z,97800.97
2023-04-11T18:52:29.276Z,97799.34
2023-04-11T18:54:56.346Z,97802.16
2023-04-11T18:57:25.480Z,97804.38
2023-04-11T18:59:55.248Z,97791.25
2023-04-11T19:02:22.989Z,97800.97
2023-04-11T19:04:50.731Z,97804.69
2023-04-11T19:07:17.517Z,97795.78
2023-04-11T19:09:44.081Z,97795.97
2023-04-11T19:12:10.973Z,97799.25
2023-04-11T19:14:37.509Z,97784.22
2023-04-11T19:17:04.189Z,97788.88
2023-04-11T19:19:30.688Z,97792.13
2023-04-11T19:21:57.299Z,97790.19
2023-04-11T19:24:23.826Z,97791.09
2023-04-11T19:26:50.323Z,97796.53
2023-04-11T19:29:17.057Z,97791.75
2023-04-11T19:31:43.567Z,97775.97
2023-04-11T19:34:10.137Z,97784.50
2023-04-11T19:36:36.741Z,97781.03
2023-04-11T19:39:03.306Z,97791.69
2023-04-11T19:41:29.800Z,97782.50
2023-04-11T19:43:56.623Z,97776.19
2023-04-11T19:46:23.368Z,97778.00
2023-04-11T19:48:49.900Z,97774.22
2023-04-11T19:51:17.254Z,97773.81
2023-04-11T19:53:43.998Z,97775.41
2023-04-11T19:56:10.816Z,97770.59
2023-04-11T19:58:37.424Z,97775.63
2023-04-11T20:01:07.302Z,97774.00
2023-04-11T20:03:34.376Z,97772.50
2023-04-11T20:06:02.507Z,97779.13
2023-04-11T20:08:30.934Z,97771.34
2023-04-11T20:10:57.804Z,97758.34
2023-04-11T20:13:24.296Z,97755.13
2023-04-11T20:15:50.846Z,97764.66
2023-04-11T20:18:17.328Z,97764.25
2023-04-11T20:20:45.398Z,97760.53
2023-04-11T20:23:15.922Z,97748.97
2023-04-11T20:25:42.814Z,97750.19
2023-04-11T20:28:09.728Z,97746.34
2023-04-11T20:30:38.321Z,97727.47
2023-04-11T20:33:04.859Z,97742.06
2023-04-11T20:35:31.797Z,97735.91
2023-04-11T20:37:58.389Z,97731.94
2023-04-11T20:40:25.162Z,97728.06
2023-04-11T20:42:51.680Z,97730.19
2023-04-11T20:45:20.561Z,97734.97
2023-04-11T20:47:47.789Z,97726.91
2023-04-11T20:50:15.987Z,97723.94
2023-04-11T20:52:43.426Z,97726.22
2023-04-11T20:55:10.637Z,97721.25
2023-04-11T20:57:37.151Z,97721.53
2023-04-11T21:00:12.127Z,97725.69
2023-04-11T21:02:38.891Z,97714.81
2023-04-11T21:05:06.191Z,97716.56
2023-04-11T21:07:32.821Z,97717.56
2023-04-11T21:10:01.516Z,97712.81
2023-04-11T21:12:28.021Z,97710.09
2023-04-11T21:14:54.494Z,97705.63
2023-04-11T21:17:21.566Z,97699.84
2023-04-11T21:19:48.057Z,97700.22
2023-04-11T21:22:14.531Z,97701.16
2023-04-11T21:24:41.272Z,97704.34
2023-04-11T21:27:07.764Z,97702.31
2023-04-11T21:29:34.274Z,97698.78
2023-04-11T21:32:01.265Z,97696.13
2023-04-11T21:34:27.983Z,97697.34
2023-04-11T21:36:54.500Z,97705.47
2023-04-11T21:39:21.186Z,97684.31
2023-04-11T21:41:47.991Z,97681.63
2023-04-11T21:44:14.460Z,97681.19
2023-04-11T21:46:41.094Z,97677.75
2023-04-11T21:49:07.616Z,97674.72
2023-04-11T21:51:34.381Z,97668.63
2023-04-11T21:54:02.727Z,97670.72
2023-04-11T21:56:29.474Z,97669.63
2023-04-11T21:58:55.991Z,97666.44
2023-04-11T22:01:23.872Z,97662.34
2023-04-11T22:03:50.939Z,97651.38
2023-04-11T22:06:18.590Z,97656.47
2023-04-11T22:08:50.236Z,97650.38
2023-04-11T22:11:17.696Z,97648.44
2023-04-11T22:13:46.354Z,97656.25
2023-04-11T22:16:13.945Z,97657.66
2023-04-11T22:18:46.848Z,97652.81
2023-04-11T22:21:19.849Z,97645.78
2023-04-11T22:23:48.693Z,97637.13
2023-04-11T22:26:15.384Z,97640.03
2023-04-11T22:28:42.417Z,97631.81
2023-04-11T22:31:09.664Z,97626.16
2023-04-11T22:33:38.894Z,97625.22
2023-04-11T22:36:05.577Z,97626.94
2023-04-11T22:38:32.235Z,97620.63
2023-04-11T22:40:59.059Z,97613.44
2023-04-11T22:43:25.621Z,97613.44
2023-04-11T22:45:53.215Z,97613.13
2023-04-11T22:48:19.704Z,97605.84
2023-04-11T22:50:52.769Z,97610.88
2023-04-11T22:53:19.443Z,97609.16
2023-04-11T22:55:45.983Z,97594.59
2023-04-11T22:58:12.499Z,97588.81
2023-04-11T23:00:39.394Z,97581.03
2023-04-11T23:03:07.571Z,97580.25
2023-04-11T23:05:34.267Z,97581.00
2023-04-11T23:08:00.740Z,97580.34
2023-04-11T23:10:28.913Z,97571.50
2023-04-11T23:12:55.859Z,97563.97
2023-04-11T23:15:22.538Z,97567.53
2023-04-11T23:17:49.207Z,97567.78
2023-04-11T23:20:17.101Z,97553.44
2023-04-11T23:22:44.088Z,97557.03
2023-04-11T23:25:15.024Z,97565.41
2023-04-11T23:27:43.394Z,97540.88
2023-04-11T23:30:11.845Z,97548.16
2023-04-11T23:32:38.917Z,97546.44
2023-04-11T23:35:06.591Z,97543.28
2023-04-11T23:37:33.112Z,97542.50
2023-04-11T23:39:59.769Z,97546.19
2023-04-11T23:42:26.286Z,97536.31
2023-04-11T23:44:52.814Z,97542.84
2023-04-11T23:47:19.281Z,97539.97
2023-04-11T23:49:45.746Z,97539.41
2023-04-11T23:52:12.330Z,97534.00
2023-04-11T23:54:38.816Z,97527.59
2023-04-11T23:57:05.317Z,97523.34
2023-04-11T23:59:31.855Z,97520.00
